sensor_id;sensor_type;location;lat;lon;timestamp;temperature;humidity
13808;DHT22;40769;51.512;5.494;2022-12-05T00:00:52;6.70;99.90
13808;DHT22;40769;51.512;5.494;2022-12-05T00:03:18;6.60;99.90
13808;DHT22;40769;51.512;5.494;2022-12-05T00:05:44;6.70;99.90
13808;DHT22;40769;51.512;5.494;2022-12-05T00:08:09;6.80;99.90
13808;DHT22;40769;51.512;5.494;2022-12-05T00:10:36;6.90;99.90
13808;DHT22;40769;51.512;5.494;2022-12-05T00:13:02;7.20;99.90
13808;DHT22;40769;51.512;5.494;2022-12-05T00:15:27;6.90;99.90
13808;DHT22;40769;51.512;5.494;2022-12-05T00:17:53;6.90;99.90
13808;DHT22;40769;51.512;5.494;2022-12-05T00:20:18;6.80;99.90
13808;DHT22;40769;51.512;5.494;2022-12-05T00:22:45;6.80;99.90
13808;DHT22;40769;51.512;5.494;2022-12-05T00:25:11;6.70;99.90
13808;DHT22;40769;51.512;5.494;2022-12-05T00:27:36;6.70;99.90
13808;DHT22;40769;51.512;5.494;2022-12-05T00:30:03;7.10;99.90
13808;DHT22;40769;51.512;5.494;2022-12-05T00:32:29;6.70;99.90
13808;DHT22;40769;51.512;5.494;2022-12-05T00:34:55;6.70;99.90
13808;DHT22;40769;51.512;5.494;2022-12-05T00:37:21;6.60;99.90
13808;DHT22;40769;51.512;5.494;2022-12-05T00:39:47;6.60;99.90
13808;DHT22;40769;51.512;5.494;2022-12-05T00:42:12;6.60;99.90
13808;DHT22;40769;51.512;5.494;2022-12-05T00:44:38;6.60;99.90
13808;DHT22;40769;51.512;5.494;2022-12-05T00:47:04;6.60;99.90
13808;DHT22;40769;51.512;5.494;2022-12-05T00:49:29;6.50;99.90
13808;DHT22;40769;51.512;5.494;2022-12-05T00:51:55;6.60;99.90
13808;DHT22;40769;51.512;5.494;2022-12-05T00:54:21;6.90;99.90
13808;DHT22;40769;51.512;5.494;2022-12-05T00:56:46;6.70;99.90
13808;DHT22;40769;51.512;5.494;2022-12-05T00:59:16;6.70;99.90
13808;DHT22;40769;51.512;5.494;2022-12-05T01:01:44;6.70;99.90
13808;DHT22;40769;51.512;5.494;2022-12-05T01:04:13;6.60;99.90
13808;DHT22;40769;51.512;5.494;2022-12-05T01:06:40;6.50;99.90
13808;DHT22;40769;51.512;5.494;2022-12-05T01:09:06;6.60;99.90
13808;DHT22;40769;51.512;5.494;2022-12-05T01:11:32;6.60;99.90
13808;DHT22;40769;51.512;5.494;2022-12-05T01:13:58;6.60;99.90
13808;DHT22;40769;51.512;5.494;2022-12-05T01:16:29;6.50;99.90
13808;DHT22;40769;51.512;5.494;2022-12-05T01:19:00;6.50;99.90
13808;DHT22;40769;51.512;5.494;2022-12-05T01:21:26;6.40;99.90
13808;DHT22;40769;51.512;5.494;2022-12-05T01:23:52;6.40;99.90
13808;DHT22;40769;51.512;5.494;2022-12-05T01:26:19;6.40;99.90
13808;DHT22;40769;51.512;5.494;2022-12-05T01:28:45;6.50;99.90
13808;DHT22;40769;51.512;5.494;2022-12-05T01:31:24;6.60;99.90
13808;DHT22;40769;51.512;5.494;2022-12-05T01:33:53;6.60;99.90
13808;DHT22;40769;51.512;5.494;2022-12-05T01:36:20;6.60;99.90
13808;DHT22;40769;51.512;5.494;2022-12-05T01:38:46;6.60;99.90
13808;DHT22;40769;51.512;5.494;2022-12-05T01:41:15;6.70;99.90
13808;DHT22;40769;51.512;5.494;2022-12-05T01:43:57;6.80;99.90
13808;DHT22;40769;51.512;5.494;2022-12-05T01:46:24;6.80;99.90
13808;DHT22;40769;51.512;5.494;2022-12-05T01:48:54;6.80;99.90
13808;DHT22;40769;51.512;5.494;2022-12-05T01:51:20;6.80;99.90
13808;DHT22;40769;51.512;5.494;2022-12-05T01:53:46;6.70;99.90
13808;DHT22;40769;51.512;5.494;2022-12-05T01:56:12;6.80;99.90
13808;DHT22;40769;51.512;5.494;2022-12-05T01:58:39;6.80;99.90
13808;DHT22;40769;51.512;5.494;2022-12-05T02:01:06;6.80;99.90
13808;DHT22;40769;51.512;5.494;2022-12-05T02:03:32;6.70;99.90
13808;DHT22;40769;51.512;5.494;2022-12-05T02:05:58;6.70;99.90
13808;DHT22;40769;51.512;5.494;2022-12-05T02:08:26;6.60;99.90
13808;DHT22;40769;51.512;5.494;2022-12-05T02:10:55;6.70;99.90
13808;DHT22;40769;51.512;5.494;2022-12-05T02:16:07;6.80;99.90
13808;DHT22;40769;51.512;5.494;2022-12-05T02:21:29;6.80;99.90
13808;DHT22;40769;51.512;5.494;2022-12-05T02:27:12;6.90;99.90
13808;DHT22;40769;51.512;5.494;2022-12-05T02:30:14;6.90;99.90
13808;DHT22;40769;51.512;5.494;2022-12-05T02:43:55;7.00;99.90
13808;DHT22;40769;51.512;5.494;2022-12-05T02:46:24;7.00;99.90
13808;DHT22;40769;51.512;5.494;2022-12-05T02:48:53;6.90;99.90
13808;DHT22;40769;51.512;5.494;2022-12-05T02:51:23;6.90;99.90
13808;DHT22;40769;51.512;5.494;2022-12-05T02:53:50;6.90;99.90
13808;DHT22;40769;51.512;5.494;2022-12-05T02:56:17;6.90;99.90
13808;DHT22;40769;51.512;5.494;2022-12-05T02:58:48;6.90;99.90
13808;DHT22;40769;51.512;5.494;2022-12-05T03:01:15;6.90;99.90
13808;DHT22;40769;51.512;5.494;2022-12-05T03:03:42;6.90;99.90
13808;DHT22;40769;51.512;5.494;2022-12-05T03:06:16;6.90;99.90
13808;DHT22;40769;51.512;5.494;2022-12-05T03:08:48;6.20;99.90
13808;DHT22;40769;51.512;5.494;2022-12-05T03:11:17;7.00;99.90
13808;DHT22;40769;51.512;5.494;2022-12-05T03:13:55;7.10;99.90
13808;DHT22;40769;51.512;5.494;2022-12-05T03:16:26;7.10;99.90
13808;DHT22;40769;51.512;5.494;2022-12-05T03:19:02;7.10;99.90
13808;DHT22;40769;51.512;5.494;2022-12-05T03:21:33;7.10;99.90
13808;DHT22;40769;51.512;5.494;2022-12-05T03:24:06;7.10;99.90
13808;DHT22;40769;51.512;5.494;2022-12-05T03:34:24;7.20;99.90
13808;DHT22;40769;51.512;5.494;2022-12-05T03:36:53;7.30;99.90
13808;DHT22;40769;51.512;5.494;2022-12-05T03:39:29;7.40;99.90
13808;DHT22;40769;51.512;5.494;2022-12-05T03:42:02;7.60;99.90
13808;DHT22;40769;51.512;5.494;2022-12-05T03:47:30;7.40;99.90
13808;DHT22;40769;51.512;5.494;2022-12-05T03:50:06;7.30;99.90
13808;DHT22;40769;51.512;5.494;2022-12-05T03:52:53;7.30;99.90
13808;DHT22;40769;51.512;5.494;2022-12-05T03:55:20;7.30;99.90
13808;DHT22;40769;51.512;5.494;2022-12-05T03:57:57;7.30;99.90
13808;DHT22;40769;51.512;5.494;2022-12-05T04:00:26;7.30;99.90
13808;DHT22;40769;51.512;5.494;2022-12-05T04:03:15;7.30;99.90
13808;DHT22;40769;51.512;5.494;2022-12-05T04:05:58;7.20;99.90
13808;DHT22;40769;51.512;5.494;2022-12-05T04:08:29;7.50;99.90
13808;DHT22;40769;51.512;5.494;2022-12-05T04:11:02;7.10;99.90
13808;DHT22;40769;51.512;5.494;2022-12-05T04:13:33;7.10;99.90
13808;DHT22;40769;51.512;5.494;2022-12-05T04:16:09;7.00;99.90
13808;DHT22;40769;51.512;5.494;2022-12-05T04:18:59;7.00;99.90
13808;DHT22;40769;51.512;5.494;2022-12-05T04:21:29;7.00;99.90
13808;DHT22;40769;51.512;5.494;2022-12-05T04:24:08;6.90;99.90
13808;DHT22;40769;51.512;5.494;2022-12-05T04:30:13;6.90;99.90
13808;DHT22;40769;51.512;5.494;2022-12-05T04:33:14;6.90;99.90
13808;DHT22;40769;51.512;5.494;2022-12-05T04:38:59;7.00;99.90
13808;DHT22;40769;51.512;5.494;2022-12-05T04:41:08;6.90;99.90
13808;DHT22;40769;51.512;5.494;2022-12-05T04:43:38;7.10;99.90
13808;DHT22;40769;51.512;5.494;2022-12-05T04:46:07;7.20;99.90
13808;DHT22;40769;51.512;5.494;2022-12-05T04:48:36;7.20;99.90
13808;DHT22;40769;51.512;5.494;2022-12-05T04:51:04;7.00;99.90
13808;DHT22;40769;51.512;5.494;2022-12-05T04:53:32;7.20;99.90
13808;DHT22;40769;51.512;5.494;2022-12-05T04:56:00;7.10;99.90
13808;DHT22;40769;51.512;5.494;2022-12-05T04:58:27;7.20;99.90
13808;DHT22;40769;51.512;5.494;2022-12-05T05:01:09;7.20;99.90
13808;DHT22;40769;51.512;5.494;2022-12-05T05:06:09;7.20;99.90
13808;DHT22;40769;51.512;5.494;2022-12-05T05:08:35;7.20;99.90
13808;DHT22;40769;51.512;5.494;2022-12-05T05:11:14;7.20;99.90
13808;DHT22;40769;51.512;5.494;2022-12-05T05:13:40;7.20;99.90
13808;DHT22;40769;51.512;5.494;2022-12-05T05:16:06;7.30;99.90
13808;DHT22;40769;51.512;5.494;2022-12-05T05:18:32;7.20;99.90
13808;DHT22;40769;51.512;5.494;2022-12-05T05:20:58;7.10;99.90
13808;DHT22;40769;51.512;5.494;2022-12-05T05:23:24;7.10;99.90
13808;DHT22;40769;51.512;5.494;2022-12-05T05:25:54;7.20;99.90
13808;DHT22;40769;51.512;5.494;2022-12-05T05:28:20;7.20;99.90
13808;DHT22;40769;51.512;5.494;2022-12-05T05:30:46;7.20;99.90
13808;DHT22;40769;51.512;5.494;2022-12-05T05:33:12;7.30;99.90
13808;DHT22;40769;51.512;5.494;2022-12-05T05:35:38;7.20;99.90
13808;DHT22;40769;51.512;5.494;2022-12-05T05:38:04;7.20;99.90
13808;DHT22;40769;51.512;5.494;2022-12-05T05:40:30;7.20;99.90
13808;DHT22;40769;51.512;5.494;2022-12-05T05:42:55;7.30;99.90
13808;DHT22;40769;51.512;5.494;2022-12-05T05:45:21;7.40;99.90
13808;DHT22;40769;51.512;5.494;2022-12-05T05:47:47;7.70;99.90
13808;DHT22;40769;51.512;5.494;2022-12-05T05:50:14;7.60;99.90
13808;DHT22;40769;51.512;5.494;2022-12-05T05:52:39;7.70;99.90
13808;DHT22;40769;51.512;5.494;2022-12-05T05:55:06;7.80;99.90
13808;DHT22;40769;51.512;5.494;2022-12-05T05:57:32;7.80;99.90
13808;DHT22;40769;51.512;5.494;2022-12-05T05:59:57;7.80;99.90
13808;DHT22;40769;51.512;5.494;2022-12-05T06:02:23;7.60;99.90
13808;DHT22;40769;51.512;5.494;2022-12-05T06:04:49;7.50;99.90
13808;DHT22;40769;51.512;5.494;2022-12-05T06:07:14;7.40;99.90
13808;DHT22;40769;51.512;5.494;2022-12-05T06:09:40;7.20;99.90
13808;DHT22;40769;51.512;5.494;2022-12-05T06:12:06;7.20;99.90
13808;DHT22;40769;51.512;5.494;2022-12-05T06:14:32;7.30;99.90
13808;DHT22;40769;51.512;5.494;2022-12-05T06:16:57;7.30;99.90
13808;DHT22;40769;51.512;5.494;2022-12-05T06:19:23;7.30;99.90
13808;DHT22;40769;51.512;5.494;2022-12-05T06:21:49;7.20;99.90
13808;DHT22;40769;51.512;5.494;2022-12-05T06:24:16;7.20;99.90
13808;DHT22;40769;51.512;5.494;2022-12-05T06:26:42;7.20;99.90
13808;DHT22;40769;51.512;5.494;2022-12-05T06:29:08;7.20;99.90
13808;DHT22;40769;51.512;5.494;2022-12-05T06:31:34;7.30;99.90
13808;DHT22;40769;51.512;5.494;2022-12-05T06:34:00;7.30;99.90
13808;DHT22;40769;51.512;5.494;2022-12-05T06:36:27;7.30;99.90
13808;DHT22;40769;51.512;5.494;2022-12-05T06:38:56;7.20;99.90
13808;DHT22;40769;51.512;5.494;2022-12-05T06:41:23;7.20;99.90
13808;DHT22;40769;51.512;5.494;2022-12-05T06:43:56;7.10;99.90
13808;DHT22;40769;51.512;5.494;2022-12-05T06:46:23;7.10;99.90
13808;DHT22;40769;51.512;5.494;2022-12-05T06:48:55;7.00;99.90
13808;DHT22;40769;51.512;5.494;2022-12-05T06:51:21;7.00;99.90
13808;DHT22;40769;51.512;5.494;2022-12-05T06:53:47;7.00;99.90
13808;DHT22;40769;51.512;5.494;2022-12-05T06:56:15;7.00;99.90
13808;DHT22;40769;51.512;5.494;2022-12-05T06:58:43;7.00;99.90
13808;DHT22;40769;51.512;5.494;2022-12-05T07:01:19;7.00;99.90
13808;DHT22;40769;51.512;5.494;2022-12-05T07:04:17;7.00;99.90
13808;DHT22;40769;51.512;5.494;2022-12-05T07:06:51;7.00;99.90
13808;DHT22;40769;51.512;5.494;2022-12-05T07:09:22;7.00;99.90
13808;DHT22;40769;51.512;5.494;2022-12-05T07:12:08;7.00;99.90
13808;DHT22;40769;51.512;5.494;2022-12-05T07:14:34;7.00;99.90
13808;DHT22;40769;51.512;5.494;2022-12-05T07:16:59;7.00;99.90
13808;DHT22;40769;51.512;5.494;2022-12-05T07:19:27;7.00;99.90
13808;DHT22;40769;51.512;5.494;2022-12-05T07:21:53;7.00;99.90
13808;DHT22;40769;51.512;5.494;2022-12-05T07:24:19;7.10;99.90
13808;DHT22;40769;51.512;5.494;2022-12-05T07:26:44;7.10;99.90
13808;DHT22;40769;51.512;5.494;2022-12-05T07:29:10;7.10;99.90
13808;DHT22;40769;51.512;5.494;2022-12-05T07:31:36;7.10;99.90
13808;DHT22;40769;51.512;5.494;2022-12-05T07:34:01;7.30;99.90
13808;DHT22;40769;51.512;5.494;2022-12-05T07:36:27;7.00;99.90
13808;DHT22;40769;51.512;5.494;2022-12-05T07:38:57;7.10;99.90
13808;DHT22;40769;51.512;5.494;2022-12-05T07:41:28;7.20;99.90
13808;DHT22;40769;51.512;5.494;2022-12-05T07:43:55;7.10;99.90
13808;DHT22;40769;51.512;5.494;2022-12-05T07:46:22;7.00;99.90
13808;DHT22;40769;51.512;5.494;2022-12-05T07:48:48;7.00;99.90
13808;DHT22;40769;51.512;5.494;2022-12-05T07:51:14;7.00;99.90
13808;DHT22;40769;51.512;5.494;2022-12-05T07:53:40;7.00;99.90
13808;DHT22;40769;51.512;5.494;2022-12-05T07:56:07;7.00;99.90
13808;DHT22;40769;51.512;5.494;2022-12-05T07:58:34;7.00;99.90
13808;DHT22;40769;51.512;5.494;2022-12-05T08:01:08;7.00;99.90
13808;DHT22;40769;51.512;5.494;2022-12-05T08:03:34;7.10;99.90
13808;DHT22;40769;51.512;5.494;2022-12-05T08:06:10;7.10;99.90
13808;DHT22;40769;51.512;5.494;2022-12-05T08:08:36;7.10;99.90
13808;DHT22;40769;51.512;5.494;2022-12-05T08:11:10;7.20;99.90
13808;DHT22;40769;51.512;5.494;2022-12-05T08:13:36;7.20;99.90
13808;DHT22;40769;51.512;5.494;2022-12-05T08:16:04;7.30;99.90
13808;DHT22;40769;51.512;5.494;2022-12-05T08:18:30;7.30;99.90
13808;DHT22;40769;51.512;5.494;2022-12-05T08:21:00;7.30;99.90
13808;DHT22;40769;51.512;5.494;2022-12-05T08:23:28;7.30;99.90
13808;DHT22;40769;51.512;5.494;2022-12-05T08:25:54;7.30;99.90
13808;DHT22;40769;51.512;5.494;2022-12-05T08:28:20;7.40;99.90
13808;DHT22;40769;51.512;5.494;2022-12-05T08:30:45;7.40;99.90
13808;DHT22;40769;51.512;5.494;2022-12-05T08:33:11;7.50;99.90
13808;DHT22;40769;51.512;5.494;2022-12-05T08:35:37;7.50;99.90
13808;DHT22;40769;51.512;5.494;2022-12-05T08:38:02;7.60;99.90
13808;DHT22;40769;51.512;5.494;2022-12-05T08:40:28;7.60;99.90
13808;DHT22;40769;51.512;5.494;2022-12-05T08:42:56;7.70;99.90
13808;DHT22;40769;51.512;5.494;2022-12-05T08:45:22;8.50;99.90
13808;DHT22;40769;51.512;5.494;2022-12-05T08:47:47;7.90;99.90
13808;DHT22;40769;51.512;5.494;2022-12-05T08:50:13;8.10;99.90
13808;DHT22;40769;51.512;5.494;2022-12-05T08:52:38;8.20;99.90
13808;DHT22;40769;51.512;5.494;2022-12-05T08:55:04;8.30;99.90
13808;DHT22;40769;51.512;5.494;2022-12-05T08:57:30;8.40;99.90
13808;DHT22;40769;51.512;5.494;2022-12-05T08:59:55;8.40;99.90
13808;DHT22;40769;51.512;5.494;2022-12-05T09:02:21;8.30;99.90
13808;DHT22;40769;51.512;5.494;2022-12-05T09:04:50;8.20;99.90
13808;DHT22;40769;51.512;5.494;2022-12-05T09:07:16;8.10;99.90
13808;DHT22;40769;51.512;5.494;2022-12-05T09:09:42;8.10;99.90
13808;DHT22;40769;51.512;5.494;2022-12-05T09:12:08;8.20;99.90
13808;DHT22;40769;51.512;5.494;2022-12-05T09:14:33;8.20;99.90
13808;DHT22;40769;51.512;5.494;2022-12-05T09:16:59;8.30;99.90
13808;DHT22;40769;51.512;5.494;2022-12-05T09:19:26;8.30;99.90
13808;DHT22;40769;51.512;5.494;2022-12-05T09:21:53;8.30;99.90
13808;DHT22;40769;51.512;5.494;2022-12-05T09:24:18;8.20;99.90
13808;DHT22;40769;51.512;5.494;2022-12-05T09:26:45;8.10;99.90
13808;DHT22;40769;51.512;5.494;2022-12-05T09:29:13;8.10;99.90
13808;DHT22;40769;51.512;5.494;2022-12-05T09:31:39;8.10;99.90
13808;DHT22;40769;51.512;5.494;2022-12-05T09:34:07;8.10;99.90
13808;DHT22;40769;51.512;5.494;2022-12-05T09:36:33;8.10;99.90
13808;DHT22;40769;51.512;5.494;2022-12-05T09:39:02;8.10;99.90
13808;DHT22;40769;51.512;5.494;2022-12-05T09:41:51;8.00;99.90
13808;DHT22;40769;51.512;5.494;2022-12-05T09:47:06;8.00;99.90
13808;DHT22;40769;51.512;5.494;2022-12-05T09:49:43;8.10;99.90
13808;DHT22;40769;51.512;5.494;2022-12-05T09:52:21;8.10;99.90
13808;DHT22;40769;51.512;5.494;2022-12-05T09:54:48;8.10;99.90
13808;DHT22;40769;51.512;5.494;2022-12-05T09:57:14;8.00;99.90
13808;DHT22;40769;51.512;5.494;2022-12-05T09:59:40;8.00;99.90
13808;DHT22;40769;51.512;5.494;2022-12-05T10:02:30;8.00;99.90
13808;DHT22;40769;51.512;5.494;2022-12-05T10:05:10;8.10;99.90
13808;DHT22;40769;51.512;5.494;2022-12-05T10:16:11;8.10;99.90
13808;DHT22;40769;51.512;5.494;2022-12-05T10:18:51;8.10;99.90
13808;DHT22;40769;51.512;5.494;2022-12-05T10:21:24;8.10;99.90
13808;DHT22;40769;51.512;5.494;2022-12-05T10:23:56;8.00;99.90
13808;DHT22;40769;51.512;5.494;2022-12-05T10:26:26;7.90;99.90
13808;DHT22;40769;51.512;5.494;2022-12-05T10:32:01;7.70;99.90
13808;DHT22;40769;51.512;5.494;2022-12-05T10:34:40;7.70;99.90
13808;DHT22;40769;51.512;5.494;2022-12-05T10:37:22;7.70;99.90
13808;DHT22;40769;51.512;5.494;2022-12-05T10:39:49;7.60;99.90
13808;DHT22;40769;51.512;5.494;2022-12-05T10:44:44;7.50;99.90
13808;DHT22;40769;51.512;5.494;2022-12-05T10:47:13;7.50;99.90
13808;DHT22;40769;51.512;5.494;2022-12-05T10:49:39;7.80;99.90
13808;DHT22;40769;51.512;5.494;2022-12-05T10:52:04;7.60;99.90
13808;DHT22;40769;51.512;5.494;2022-12-05T10:54:33;7.80;99.90
13808;DHT22;40769;51.512;5.494;2022-12-05T10:57:27;8.00;99.90
13808;DHT22;40769;51.512;5.494;2022-12-05T10:59:54;8.10;99.90
13808;DHT22;40769;51.512;5.494;2022-12-05T11:04:52;8.40;99.90
13808;DHT22;40769;51.512;5.494;2022-12-05T11:12:44;8.50;99.90
13808;DHT22;40769;51.512;5.494;2022-12-05T11:17:47;8.60;99.90
13808;DHT22;40769;51.512;5.494;2022-12-05T11:22:53;8.70;99.90
13808;DHT22;40769;51.512;5.494;2022-12-05T11:25:35;8.80;99.90
13808;DHT22;40769;51.512;5.494;2022-12-05T11:33:28;8.80;99.90
13808;DHT22;40769;51.512;5.494;2022-12-05T11:36:03;8.90;99.90
13808;DHT22;40769;51.512;5.494;2022-12-05T11:38:30;8.80;99.90
13808;DHT22;40769;51.512;5.494;2022-12-05T11:47:13;8.40;99.90
13808;DHT22;40769;51.512;5.494;2022-12-05T12:11:37;8.20;99.90
13808;DHT22;40769;51.512;5.494;2022-12-05T12:17:18;8.00;99.90
13808;DHT22;40769;51.512;5.494;2022-12-05T12:25:37;8.00;99.90
13808;DHT22;40769;51.512;5.494;2022-12-05T12:31:50;8.00;99.90
13808;DHT22;40769;51.512;5.494;2022-12-05T12:35:23;8.10;99.90
13808;DHT22;40769;51.512;5.494;2022-12-05T12:42:24;8.10;99.90
13808;DHT22;40769;51.512;5.494;2022-12-05T12:48:12;8.20;99.90
13808;DHT22;40769;51.512;5.494;2022-12-05T12:50:39;8.20;99.90
13808;DHT22;40769;51.512;5.494;2022-12-05T13:01:44;8.20;99.90
13808;DHT22;40769;51.512;5.494;2022-12-05T13:04:19;8.30;99.90
13808;DHT22;40769;51.512;5.494;2022-12-05T13:07:09;8.30;99.90
13808;DHT22;40769;51.512;5.494;2022-12-05T13:12:09;8.10;99.90
13808;DHT22;40769;51.512;5.494;2022-12-05T13:14:37;8.10;99.90
13808;DHT22;40769;51.512;5.494;2022-12-05T13:17:05;8.20;99.90
13808;DHT22;40769;51.512;5.494;2022-12-05T13:19:52;8.20;99.90
13808;DHT22;40769;51.512;5.494;2022-12-05T13:22:23;8.20;99.90
13808;DHT22;40769;51.512;5.494;2022-12-05T13:24:50;8.20;99.90
13808;DHT22;40769;51.512;5.494;2022-12-05T13:27:19;8.10;99.90
13808;DHT22;40769;51.512;5.494;2022-12-05T13:32:37;8.10;99.90
13808;DHT22;40769;51.512;5.494;2022-12-05T13:35:20;8.20;99.90
13808;DHT22;40769;51.512;5.494;2022-12-05T13:41:12;8.20;99.90
13808;DHT22;40769;51.512;5.494;2022-12-05T13:43:57;8.20;99.90
13808;DHT22;40769;51.512;5.494;2022-12-05T13:46:29;8.30;99.90
13808;DHT22;40769;51.512;5.494;2022-12-05T13:49:00;8.30;99.90
13808;DHT22;40769;51.512;5.494;2022-12-05T13:51:36;8.30;99.90
13808;DHT22;40769;51.512;5.494;2022-12-05T13:54:16;8.30;99.90
13808;DHT22;40769;51.512;5.494;2022-12-05T14:05:39;8.20;99.90
13808;DHT22;40769;51.512;5.494;2022-12-05T14:15:50;8.20;99.90
13808;DHT22;40769;51.512;5.494;2022-12-05T14:18:38;8.20;99.90
13808;DHT22;40769;51.512;5.494;2022-12-05T14:21:20;8.20;99.90
13808;DHT22;40769;51.512;5.494;2022-12-05T14:24:17;8.20;99.90
13808;DHT22;40769;51.512;5.494;2022-12-05T14:27:09;8.20;99.90
13808;DHT22;40769;51.512;5.494;2022-12-05T14:30:16;8.20;99.90
13808;DHT22;40769;51.512;5.494;2022-12-05T14:32:44;8.20;99.90
13808;DHT22;40769;51.512;5.494;2022-12-05T14:35:14;8.30;99.90
13808;DHT22;40769;51.512;5.494;2022-12-05T14:47:51;8.40;99.90
13808;DHT22;40769;51.512;5.494;2022-12-05T15:01:18;8.30;99.90
13808;DHT22;40769;51.512;5.494;2022-12-05T15:06:22;8.40;99.90
13808;DHT22;40769;51.512;5.494;2022-12-05T15:08:52;8.40;99.90
13808;DHT22;40769;51.512;5.494;2022-12-05T15:11:22;8.40;99.90
13808;DHT22;40769;51.512;5.494;2022-12-05T15:14:19;8.40;99.90
13808;DHT22;40769;51.512;5.494;2022-12-05T15:16:49;8.40;99.90
13808;DHT22;40769;51.512;5.494;2022-12-05T15:19:24;8.50;99.90
13808;DHT22;40769;51.512;5.494;2022-12-05T15:21:57;8.50;99.90
13808;DHT22;40769;51.512;5.494;2022-12-05T15:24:24;8.40;99.90
13808;DHT22;40769;51.512;5.494;2022-12-05T15:26:55;8.50;99.90
13808;DHT22;40769;51.512;5.494;2022-12-05T15:31:58;8.30;99.90
13808;DHT22;40769;51.512;5.494;2022-12-05T15:37:15;8.40;99.90
13808;DHT22;40769;51.512;5.494;2022-12-05T15:40:00;8.40;99.90
13808;DHT22;40769;51.512;5.494;2022-12-05T15:42:35;8.30;99.90
13808;DHT22;40769;51.512;5.494;2022-12-05T15:47:44;8.40;99.90
13808;DHT22;40769;51.512;5.494;2022-12-05T15:50:15;8.40;99.90
13808;DHT22;40769;51.512;5.494;2022-12-05T15:55:13;8.50;99.90
13808;DHT22;40769;51.512;5.494;2022-12-05T15:57:46;8.40;99.90
13808;DHT22;40769;51.512;5.494;2022-12-05T16:00:17;8.40;99.90
13808;DHT22;40769;51.512;5.494;2022-12-05T16:02:57;8.50;99.90
13808;DHT22;40769;51.512;5.494;2022-12-05T16:05:32;8.60;99.90
13808;DHT22;40769;51.512;5.494;2022-12-05T16:08:01;8.60;99.90
13808;DHT22;40769;51.512;5.494;2022-12-05T16:10:28;8.70;99.90
13808;DHT22;40769;51.512;5.494;2022-12-05T16:12:55;8.80;99.90
13808;DHT22;40769;51.512;5.494;2022-12-05T16:15:27;8.80;99.90
13808;DHT22;40769;51.512;5.494;2022-12-05T16:17:59;8.90;99.90
13808;DHT22;40769;51.512;5.494;2022-12-05T16:20:36;8.90;99.90
13808;DHT22;40769;51.512;5.494;2022-12-05T16:23:04;9.00;99.90
13808;DHT22;40769;51.512;5.494;2022-12-05T16:25:34;9.00;99.90
13808;DHT22;40769;51.512;5.494;2022-12-05T16:30:33;8.90;99.90
13808;DHT22;40769;51.512;5.494;2022-12-05T16:33:00;8.70;99.90
13808;DHT22;40769;51.512;5.494;2022-12-05T16:35:39;8.60;99.90
13808;DHT22;40769;51.512;5.494;2022-12-05T16:38:26;8.50;99.90
13808;DHT22;40769;51.512;5.494;2022-12-05T16:40:58;8.40;99.90
13808;DHT22;40769;51.512;5.494;2022-12-05T16:48:38;8.50;99.90
13808;DHT22;40769;51.512;5.494;2022-12-05T16:53:49;8.70;99.90
13808;DHT22;40769;51.512;5.494;2022-12-05T16:58:51;8.80;99.90
13808;DHT22;40769;51.512;5.494;2022-12-05T17:01:19;8.90;99.90
13808;DHT22;40769;51.512;5.494;2022-12-05T17:03:45;8.90;99.90
13808;DHT22;40769;51.512;5.494;2022-12-05T17:06:11;9.00;99.90
13808;DHT22;40769;51.512;5.494;2022-12-05T17:08:37;9.00;99.90
13808;DHT22;40769;51.512;5.494;2022-12-05T17:11:03;9.00;99.90
13808;DHT22;40769;51.512;5.494;2022-12-05T17:13:30;9.00;99.90
13808;DHT22;40769;51.512;5.494;2022-12-05T17:15:56;8.90;99.90
13808;DHT22;40769;51.512;5.494;2022-12-05T17:18:22;8.80;99.90
13808;DHT22;40769;51.512;5.494;2022-12-05T17:20:53;8.60;99.90
13808;DHT22;40769;51.512;5.494;2022-12-05T17:23:20;8.50;99.90
13808;DHT22;40769;51.512;5.494;2022-12-05T17:25:51;8.40;99.90
13808;DHT22;40769;51.512;5.494;2022-12-05T17:28:17;8.40;99.90
13808;DHT22;40769;51.512;5.494;2022-12-05T17:30:43;8.60;99.90
13808;DHT22;40769;51.512;5.494;2022-12-05T17:33:11;8.60;99.90
13808;DHT22;40769;51.512;5.494;2022-12-05T17:35:37;8.60;99.90
13808;DHT22;40769;51.512;5.494;2022-12-05T17:38:04;8.70;99.90
13808;DHT22;40769;51.512;5.494;2022-12-05T17:40:30;8.80;99.90
13808;DHT22;40769;51.512;5.494;2022-12-05T17:42:56;8.90;99.90
13808;DHT22;40769;51.512;5.494;2022-12-05T17:45:22;9.00;99.90
13808;DHT22;40769;51.512;5.494;2022-12-05T17:47:48;9.10;99.90
13808;DHT22;40769;51.512;5.494;2022-12-05T17:50:15;9.00;99.90
13808;DHT22;40769;51.512;5.494;2022-12-05T17:52:42;9.00;99.90
13808;DHT22;40769;51.512;5.494;2022-12-05T17:55:27;8.90;99.90
13808;DHT22;40769;51.512;5.494;2022-12-05T17:57:53;9.40;99.90
13808;DHT22;40769;51.512;5.494;2022-12-05T18:00:21;8.80;99.90
13808;DHT22;40769;51.512;5.494;2022-12-05T18:02:46;8.90;99.90
13808;DHT22;40769;51.512;5.494;2022-12-05T18:05:14;8.90;99.90
13808;DHT22;40769;51.512;5.494;2022-12-05T18:07:41;9.00;99.90
13808;DHT22;40769;51.512;5.494;2022-12-05T18:10:10;9.10;99.90
13808;DHT22;40769;51.512;5.494;2022-12-05T18:12:36;9.10;99.90
13808;DHT22;40769;51.512;5.494;2022-12-05T18:15:06;9.20;99.90
13808;DHT22;40769;51.512;5.494;2022-12-05T18:17:31;9.20;99.90
13808;DHT22;40769;51.512;5.494;2022-12-05T18:19:57;9.20;99.90
13808;DHT22;40769;51.512;5.494;2022-12-05T18:22:23;9.20;99.90
13808;DHT22;40769;51.512;5.494;2022-12-05T18:24:50;9.10;99.90
13808;DHT22;40769;51.512;5.494;2022-12-05T18:27:17;9.10;99.90
13808;DHT22;40769;51.512;5.494;2022-12-05T18:29:43;9.00;99.90
13808;DHT22;40769;51.512;5.494;2022-12-05T18:32:09;9.10;99.90
13808;DHT22;40769;51.512;5.494;2022-12-05T18:34:34;9.10;99.90
13808;DHT22;40769;51.512;5.494;2022-12-05T18:37:00;9.20;99.90
13808;DHT22;40769;51.512;5.494;2022-12-05T18:39:26;9.30;99.90
13808;DHT22;40769;51.512;5.494;2022-12-05T18:41:52;9.30;99.90
13808;DHT22;40769;51.512;5.494;2022-12-05T18:44:18;9.30;99.90
13808;DHT22;40769;51.512;5.494;2022-12-05T18:46:44;9.40;99.90
13808;DHT22;40769;51.512;5.494;2022-12-05T18:49:11;9.40;99.90
13808;DHT22;40769;51.512;5.494;2022-12-05T18:51:38;9.30;99.90
13808;DHT22;40769;51.512;5.494;2022-12-05T18:54:04;9.40;99.90
13808;DHT22;40769;51.512;5.494;2022-12-05T18:56:31;9.10;99.90
13808;DHT22;40769;51.512;5.494;2022-12-05T18:59:05;9.10;99.90
13808;DHT22;40769;51.512;5.494;2022-12-05T19:01:33;9.10;99.90
13808;DHT22;40769;51.512;5.494;2022-12-05T19:04:00;9.20;99.90
13808;DHT22;40769;51.512;5.494;2022-12-05T19:06:28;9.30;99.90
13808;DHT22;40769;51.512;5.494;2022-12-05T19:08:56;9.30;99.90
13808;DHT22;40769;51.512;5.494;2022-12-05T19:11:23;9.40;99.90
13808;DHT22;40769;51.512;5.494;2022-12-05T19:13:57;9.40;99.90
13808;DHT22;40769;51.512;5.494;2022-12-05T19:16:23;9.40;99.90
13808;DHT22;40769;51.512;5.494;2022-12-05T19:18:52;9.40;99.90
13808;DHT22;40769;51.512;5.494;2022-12-05T19:21:19;9.40;99.90
13808;DHT22;40769;51.512;5.494;2022-12-05T19:23:45;9.30;99.90
13808;DHT22;40769;51.512;5.494;2022-12-05T19:26:10;9.30;99.90